In Rescue
 
Open Full Screen Window  High Contrast Mode
Wind Gusting 00 knots
04
January 24, 2020 8:18 PM EST
Present Weather: Mist
Weather Information
Wind Direction
  060 °
Wind Speed
  04 kt (5 mph)
Wind Gust
  00 kt (0 mph)
Altimeter
29.83 in
Visibility
4 SM
Temperature
01° C
34° F
Dewpoint
00° C
32° F
Humidity
93%
Sky Condition
Overcast @ 700 ft
IFR

METAR KHYX 250118Z AUTO 06004KT 4SM BR OVC007 01/00 A2983 RMK AO2

FAA Disclaimer: The data displayed is for advisory purposes only and is not to be used for flight planning or operations.